sensor_id;sensor_type;location;lat;lon;timestamp;P1;durP1;ratioP1;P2;durP2;ratioP2
12267;SDS011;6196;48.398;11.736;2023-05-07T00:01:50;1.60;;;1.50;;
12267;SDS011;6196;48.398;11.736;2023-05-07T00:04:18;3.63;;;1.97;;
12267;SDS011;6196;48.398;11.736;2023-05-07T00:06:45;2.47;;;1.70;;
12267;SDS011;6196;48.398;11.736;2023-05-07T00:09:12;2.30;;;2.10;;
12267;SDS011;6196;48.398;11.736;2023-05-07T00:11:39;2.17;;;1.97;;
12267;SDS011;6196;48.398;11.736;2023-05-07T00:14:06;3.03;;;2.00;;
12267;SDS011;6196;48.398;11.736;2023-05-07T00:16:33;3.40;;;2.30;;
12267;SDS011;6196;48.398;11.736;2023-05-07T00:19:00;2.33;;;2.00;;
12267;SDS011;6196;48.398;11.736;2023-05-07T00:21:27;1.77;;;1.67;;
12267;SDS011;6196;48.398;11.736;2023-05-07T00:23:54;2.90;;;1.80;;
12267;SDS011;6196;48.398;11.736;2023-05-07T00:26:21;2.43;;;1.90;;
12267;SDS011;6196;48.398;11.736;2023-05-07T00:28:48;2.97;;;1.80;;
12267;SDS011;6196;48.398;11.736;2023-05-07T00:31:15;2.03;;;1.83;;
12267;SDS011;6196;48.398;11.736;2023-05-07T00:33:42;1.90;;;1.80;;
12267;SDS011;6196;48.398;11.736;2023-05-07T00:36:09;2.00;;;1.90;;
12267;SDS011;6196;48.398;11.736;2023-05-07T00:38:36;2.20;;;2.00;;
12267;SDS011;6196;48.398;11.736;2023-05-07T00:41:03;2.87;;;2.13;;
12267;SDS011;6196;48.398;11.736;2023-05-07T00:43:30;2.33;;;1.90;;
12267;SDS011;6196;48.398;11.736;2023-05-07T00:45:58;3.37;;;1.83;;
12267;SDS011;6196;48.398;11.736;2023-05-07T00:48:24;1.80;;;1.70;;
12267;SDS011;6196;48.398;11.736;2023-05-07T00:50:52;2.60;;;2.10;;
12267;SDS011;6196;48.398;11.736;2023-05-07T00:53:19;2.97;;;2.23;;
12267;SDS011;6196;48.398;11.736;2023-05-07T00:55:47;2.90;;;2.33;;
12267;SDS011;6196;48.398;11.736;2023-05-07T00:58:14;2.17;;;1.87;;
12267;SDS011;6196;48.398;11.736;2023-05-07T01:00:41;2.30;;;2.20;;
12267;SDS011;6196;48.398;11.736;2023-05-07T01:03:08;3.07;;;2.00;;
12267;SDS011;6196;48.398;11.736;2023-05-07T01:05:36;2.30;;;2.10;;
12267;SDS011;6196;48.398;11.736;2023-05-07T01:08:03;3.57;;;2.53;;
12267;SDS011;6196;48.398;11.736;2023-05-07T01:10:31;2.50;;;2.30;;
12267;SDS011;6196;48.398;11.736;2023-05-07T01:12:58;2.27;;;2.00;;
12267;SDS011;6196;48.398;11.736;2023-05-07T01:15:26;3.03;;;2.13;;
12267;SDS011;6196;48.398;11.736;2023-05-07T01:17:53;2.27;;;1.97;;
12267;SDS011;6196;48.398;11.736;2023-05-07T01:20:22;3.43;;;2.03;;
12267;SDS011;6196;48.398;11.736;2023-05-07T01:22:49;2.07;;;1.87;;
12267;SDS011;6196;48.398;11.736;2023-05-07T01:25:16;2.47;;;1.90;;
12267;SDS011;6196;48.398;11.736;2023-05-07T01:27:44;2.73;;;2.30;;
12267;SDS011;6196;48.398;11.736;2023-05-07T01:30:11;3.63;;;2.10;;
12267;SDS011;6196;48.398;11.736;2023-05-07T01:35:29;2.07;;;1.80;;
12267;SDS011;6196;48.398;11.736;2023-05-07T01:38:02;2.00;;;1.90;;
12267;SDS011;6196;48.398;11.736;2023-05-07T01:40:30;3.53;;;2.13;;
12267;SDS011;6196;48.398;11.736;2023-05-07T01:42:57;2.60;;;2.00;;
12267;SDS011;6196;48.398;11.736;2023-05-07T01:45:24;4.33;;;2.30;;
12267;SDS011;6196;48.398;11.736;2023-05-07T01:47:52;2.43;;;2.30;;
12267;SDS011;6196;48.398;11.736;2023-05-07T01:50:19;3.20;;;2.67;;
12267;SDS011;6196;48.398;11.736;2023-05-07T01:52:47;4.53;;;3.20;;
12267;SDS011;6196;48.398;11.736;2023-05-07T01:55:17;3.20;;;2.97;;
12267;SDS011;6196;48.398;11.736;2023-05-07T01:57:44;3.30;;;3.00;;
12267;SDS011;6196;48.398;11.736;2023-05-07T02:00:11;3.50;;;3.20;;
12267;SDS011;6196;48.398;11.736;2023-05-07T02:02:39;3.30;;;3.00;;
12267;SDS011;6196;48.398;11.736;2023-05-07T02:05:06;3.20;;;2.80;;
12267;SDS011;6196;48.398;11.736;2023-05-07T02:07:33;3.83;;;3.53;;
12267;SDS011;6196;48.398;11.736;2023-05-07T02:10:00;3.77;;;3.47;;
12267;SDS011;6196;48.398;11.736;2023-05-07T02:12:27;3.50;;;3.20;;
12267;SDS011;6196;48.398;11.736;2023-05-07T02:14:54;3.97;;;3.10;;
12267;SDS011;6196;48.398;11.736;2023-05-07T02:17:21;3.17;;;2.87;;
12267;SDS011;6196;48.398;11.736;2023-05-07T02:19:48;3.30;;;3.00;;
12267;SDS011;6196;48.398;11.736;2023-05-07T02:22:14;3.50;;;3.20;;
12267;SDS011;6196;48.398;11.736;2023-05-07T02:24:41;3.20;;;2.90;;
12267;SDS011;6196;48.398;11.736;2023-05-07T02:27:08;3.43;;;3.13;;
12267;SDS011;6196;48.398;11.736;2023-05-07T02:29:35;3.60;;;3.17;;
12267;SDS011;6196;48.398;11.736;2023-05-07T02:32:02;5.73;;;2.83;;
12267;SDS011;6196;48.398;11.736;2023-05-07T02:34:29;3.50;;;3.20;;
12267;SDS011;6196;48.398;11.736;2023-05-07T02:36:56;3.87;;;3.10;;
12267;SDS011;6196;48.398;11.736;2023-05-07T02:39:23;4.17;;;3.40;;
12267;SDS011;6196;48.398;11.736;2023-05-07T02:41:49;3.47;;;3.27;;
12267;SDS011;6196;48.398;11.736;2023-05-07T02:44:16;3.53;;;3.23;;
12267;SDS011;6196;48.398;11.736;2023-05-07T02:46:43;3.40;;;3.10;;
12267;SDS011;6196;48.398;11.736;2023-05-07T02:49:10;3.80;;;3.47;;
12267;SDS011;6196;48.398;11.736;2023-05-07T02:51:37;3.90;;;3.50;;
12267;SDS011;6196;48.398;11.736;2023-05-07T02:54:04;4.30;;;3.80;;
12267;SDS011;6196;48.398;11.736;2023-05-07T02:56:31;4.50;;;4.10;;
12267;SDS011;6196;48.398;11.736;2023-05-07T02:58:57;4.93;;;4.10;;
12267;SDS011;6196;48.398;11.736;2023-05-07T03:01:24;4.40;;;4.00;;
12267;SDS011;6196;48.398;11.736;2023-05-07T03:03:51;5.00;;;3.80;;
12267;SDS011;6196;48.398;11.736;2023-05-07T03:06:18;4.33;;;3.93;;
12267;SDS011;6196;48.398;11.736;2023-05-07T03:08:45;3.80;;;3.50;;
12267;SDS011;6196;48.398;11.736;2023-05-07T03:11:12;3.50;;;3.20;;
12267;SDS011;6196;48.398;11.736;2023-05-07T03:13:39;3.53;;;3.10;;
12267;SDS011;6196;48.398;11.736;2023-05-07T03:16:06;6.07;;;2.97;;
12267;SDS011;6196;48.398;11.736;2023-05-07T03:18:33;3.90;;;3.23;;
12267;SDS011;6196;48.398;11.736;2023-05-07T03:21:00;4.47;;;3.07;;
12267;SDS011;6196;48.398;11.736;2023-05-07T03:23:26;3.77;;;3.47;;
12267;SDS011;6196;48.398;11.736;2023-05-07T03:25:53;4.57;;;4.10;;
12267;SDS011;6196;48.398;11.736;2023-05-07T03:28:20;4.23;;;3.93;;
12267;SDS011;6196;48.398;11.736;2023-05-07T03:30:47;3.90;;;3.50;;
12267;SDS011;6196;48.398;11.736;2023-05-07T03:33:14;4.50;;;4.10;;
12267;SDS011;6196;48.398;11.736;2023-05-07T03:35:41;4.73;;;3.90;;
12267;SDS011;6196;48.398;11.736;2023-05-07T03:38:08;4.90;;;3.90;;
12267;SDS011;6196;48.398;11.736;2023-05-07T03:40:35;4.20;;;3.80;;
12267;SDS011;6196;48.398;11.736;2023-05-07T03:43:02;3.67;;;3.30;;
12267;SDS011;6196;48.398;11.736;2023-05-07T03:45:28;3.47;;;2.93;;
12267;SDS011;6196;48.398;11.736;2023-05-07T03:47:55;3.70;;;3.40;;
12267;SDS011;6196;48.398;11.736;2023-05-07T03:50:22;3.60;;;3.30;;
12267;SDS011;6196;48.398;11.736;2023-05-07T03:52:49;4.07;;;3.30;;
12267;SDS011;6196;48.398;11.736;2023-05-07T03:55:16;5.00;;;3.17;;
12267;SDS011;6196;48.398;11.736;2023-05-07T03:57:43;3.27;;;3.00;;
12267;SDS011;6196;48.398;11.736;2023-05-07T04:00:10;4.07;;;3.43;;
12267;SDS011;6196;48.398;11.736;2023-05-07T04:02:38;3.07;;;2.87;;
12267;SDS011;6196;48.398;11.736;2023-05-07T04:05:05;3.47;;;3.10;;
12267;SDS011;6196;48.398;11.736;2023-05-07T04:07:33;3.83;;;3.53;;
12267;SDS011;6196;48.398;11.736;2023-05-07T04:10:00;4.00;;;3.60;;
12267;SDS011;6196;48.398;11.736;2023-05-07T04:12:26;4.30;;;3.90;;
12267;SDS011;6196;48.398;11.736;2023-05-07T04:14:53;3.73;;;3.43;;
12267;SDS011;6196;48.398;11.736;2023-05-07T04:17:21;5.37;;;3.97;;
12267;SDS011;6196;48.398;11.736;2023-05-07T04:19:47;4.20;;;3.70;;
12267;SDS011;6196;48.398;11.736;2023-05-07T04:22:14;5.00;;;3.60;;
12267;SDS011;6196;48.398;11.736;2023-05-07T04:24:41;3.67;;;3.37;;
12267;SDS011;6196;48.398;11.736;2023-05-07T04:27:08;4.80;;;3.83;;
12267;SDS011;6196;48.398;11.736;2023-05-07T04:29:35;3.83;;;3.33;;
12267;SDS011;6196;48.398;11.736;2023-05-07T04:32:02;3.80;;;3.50;;
12267;SDS011;6196;48.398;11.736;2023-05-07T04:34:29;3.67;;;3.37;;
12267;SDS011;6196;48.398;11.736;2023-05-07T04:36:57;5.23;;;3.80;;
12267;SDS011;6196;48.398;11.736;2023-05-07T04:39:25;4.10;;;3.80;;
12267;SDS011;6196;48.398;11.736;2023-05-07T04:41:52;4.27;;;3.90;;
12267;SDS011;6196;48.398;11.736;2023-05-07T04:44:19;4.10;;;3.10;;
12267;SDS011;6196;48.398;11.736;2023-05-07T04:46:46;3.13;;;2.93;;
12267;SDS011;6196;48.398;11.736;2023-05-07T04:49:12;3.23;;;2.93;;
12267;SDS011;6196;48.398;11.736;2023-05-07T04:51:39;3.03;;;2.83;;
12267;SDS011;6196;48.398;11.736;2023-05-07T04:54:10;3.30;;;3.00;;
12267;SDS011;6196;48.398;11.736;2023-05-07T04:56:37;3.27;;;2.93;;
12267;SDS011;6196;48.398;11.736;2023-05-07T04:59:03;3.70;;;3.00;;
12267;SDS011;6196;48.398;11.736;2023-05-07T05:01:30;3.67;;;3.03;;
12267;SDS011;6196;48.398;11.736;2023-05-07T05:03:57;3.73;;;3.43;;
12267;SDS011;6196;48.398;11.736;2023-05-07T05:06:26;3.77;;;3.47;;
12267;SDS011;6196;48.398;11.736;2023-05-07T05:08:53;5.27;;;3.73;;
12267;SDS011;6196;48.398;11.736;2023-05-07T05:11:20;5.30;;;4.27;;
12267;SDS011;6196;48.398;11.736;2023-05-07T05:13:47;4.73;;;4.17;;
12267;SDS011;6196;48.398;11.736;2023-05-07T05:16:15;5.50;;;4.47;;
12267;SDS011;6196;48.398;11.736;2023-05-07T05:18:42;4.77;;;4.37;;
12267;SDS011;6196;48.398;11.736;2023-05-07T05:21:09;4.50;;;4.10;;
12267;SDS011;6196;48.398;11.736;2023-05-07T05:23:36;4.60;;;4.00;;
12267;SDS011;6196;48.398;11.736;2023-05-07T05:26:03;4.83;;;3.90;;
12267;SDS011;6196;48.398;11.736;2023-05-07T05:28:30;6.00;;;4.40;;
12267;SDS011;6196;48.398;11.736;2023-05-07T05:30:57;4.33;;;3.83;;
12267;SDS011;6196;48.398;11.736;2023-05-07T05:33:24;4.20;;;3.80;;
12267;SDS011;6196;48.398;11.736;2023-05-07T05:35:51;4.23;;;3.77;;
12267;SDS011;6196;48.398;11.736;2023-05-07T05:38:20;4.50;;;4.10;;
12267;SDS011;6196;48.398;11.736;2023-05-07T05:40:47;4.33;;;3.93;;
12267;SDS011;6196;48.398;11.736;2023-05-07T05:43:14;5.00;;;4.60;;
12267;SDS011;6196;48.398;11.736;2023-05-07T05:45:41;4.63;;;4.23;;
12267;SDS011;6196;48.398;11.736;2023-05-07T05:48:08;4.90;;;4.37;;
12267;SDS011;6196;48.398;11.736;2023-05-07T05:50:35;6.33;;;4.40;;
12267;SDS011;6196;48.398;11.736;2023-05-07T05:53:02;5.07;;;4.67;;
12267;SDS011;6196;48.398;11.736;2023-05-07T05:55:30;5.57;;;5.07;;
12267;SDS011;6196;48.398;11.736;2023-05-07T05:57:59;5.60;;;5.10;;
12267;SDS011;6196;48.398;11.736;2023-05-07T06:00:27;6.53;;;5.90;;
12267;SDS011;6196;48.398;11.736;2023-05-07T06:02:54;6.40;;;5.80;;
12267;SDS011;6196;48.398;11.736;2023-05-07T06:05:21;7.17;;;6.47;;
12267;SDS011;6196;48.398;11.736;2023-05-07T06:07:49;6.07;;;5.50;;
12267;SDS011;6196;48.398;11.736;2023-05-07T06:10:16;7.03;;;6.13;;
12267;SDS011;6196;48.398;11.736;2023-05-07T06:12:43;6.53;;;5.83;;
12267;SDS011;6196;48.398;11.736;2023-05-07T06:15:10;6.20;;;5.60;;
12267;SDS011;6196;48.398;11.736;2023-05-07T06:17:37;6.63;;;5.73;;
12267;SDS011;6196;48.398;11.736;2023-05-07T06:20:05;7.43;;;6.73;;
12267;SDS011;6196;48.398;11.736;2023-05-07T06:22:32;6.70;;;6.10;;
12267;SDS011;6196;48.398;11.736;2023-05-07T06:24:59;7.63;;;6.93;;
12267;SDS011;6196;48.398;11.736;2023-05-07T06:27:26;8.00;;;7.20;;
12267;SDS011;6196;48.398;11.736;2023-05-07T06:29:54;8.27;;;7.30;;
12267;SDS011;6196;48.398;11.736;2023-05-07T06:32:21;8.20;;;7.50;;
12267;SDS011;6196;48.398;11.736;2023-05-07T06:34:48;8.30;;;7.50;;
12267;SDS011;6196;48.398;11.736;2023-05-07T06:37:15;8.73;;;7.93;;
12267;SDS011;6196;48.398;11.736;2023-05-07T06:39:41;10.03;;;9.03;;
12267;SDS011;6196;48.398;11.736;2023-05-07T06:42:08;10.10;;;9.20;;
12267;SDS011;6196;48.398;11.736;2023-05-07T06:44:35;10.23;;;9.23;;
12267;SDS011;6196;48.398;11.736;2023-05-07T06:47:02;9.33;;;8.43;;
12267;SDS011;6196;48.398;11.736;2023-05-07T06:49:29;10.00;;;9.07;;
12267;SDS011;6196;48.398;11.736;2023-05-07T06:51:56;8.80;;;8.00;;
12267;SDS011;6196;48.398;11.736;2023-05-07T06:54:23;9.80;;;8.90;;
12267;SDS011;6196;48.398;11.736;2023-05-07T06:56:50;10.47;;;9.20;;
12267;SDS011;6196;48.398;11.736;2023-05-07T06:59:17;10.23;;;9.40;;
12267;SDS011;6196;48.398;11.736;2023-05-07T07:01:45;10.27;;;9.37;;
12267;SDS011;6196;48.398;11.736;2023-05-07T07:04:12;10.70;;;9.67;;
12267;SDS011;6196;48.398;11.736;2023-05-07T07:06:39;9.57;;;8.67;;
12267;SDS011;6196;48.398;11.736;2023-05-07T07:09:06;11.07;;;9.83;;
12267;SDS011;6196;48.398;11.736;2023-05-07T07:11:33;10.50;;;9.60;;
12267;SDS011;6196;48.398;11.736;2023-05-07T07:13:59;10.03;;;9.03;;
12267;SDS011;6196;48.398;11.736;2023-05-07T07:16:26;9.47;;;8.67;;
12267;SDS011;6196;48.398;11.736;2023-05-07T07:18:53;10.07;;;9.00;;
12267;SDS011;6196;48.398;11.736;2023-05-07T07:21:20;10.40;;;9.50;;
12267;SDS011;6196;48.398;11.736;2023-05-07T07:23:47;9.93;;;9.07;;
12267;SDS011;6196;48.398;11.736;2023-05-07T07:26:14;9.63;;;8.83;;
12267;SDS011;6196;48.398;11.736;2023-05-07T07:28:45;10.00;;;8.70;;
12267;SDS011;6196;48.398;11.736;2023-05-07T07:31:12;9.97;;;9.07;;
12267;SDS011;6196;48.398;11.736;2023-05-07T07:33:39;10.07;;;9.03;;
12267;SDS011;6196;48.398;11.736;2023-05-07T07:36:06;9.13;;;8.23;;
12267;SDS011;6196;48.398;11.736;2023-05-07T07:38:34;9.07;;;8.30;;
12267;SDS011;6196;48.398;11.736;2023-05-07T07:41:01;8.30;;;7.60;;
12267;SDS011;6196;48.398;11.736;2023-05-07T07:43:28;8.47;;;7.67;;
12267;SDS011;6196;48.398;11.736;2023-05-07T07:45:55;8.93;;;8.13;;
12267;SDS011;6196;48.398;11.736;2023-05-07T07:48:22;8.47;;;7.67;;
12267;SDS011;6196;48.398;11.736;2023-05-07T07:50:49;9.03;;;8.13;;
12267;SDS011;6196;48.398;11.736;2023-05-07T07:53:17;7.63;;;7.03;;
12267;SDS011;6196;48.398;11.736;2023-05-07T07:55:44;8.57;;;7.87;;
12267;SDS011;6196;48.398;11.736;2023-05-07T07:58:11;8.43;;;7.73;;
12267;SDS011;6196;48.398;11.736;2023-05-07T08:00:38;8.23;;;6.87;;
12267;SDS011;6196;48.398;11.736;2023-05-07T08:03:05;7.10;;;6.50;;
12267;SDS011;6196;48.398;11.736;2023-05-07T08:05:35;7.43;;;6.83;;
12267;SDS011;6196;48.398;11.736;2023-05-07T08:08:02;7.53;;;6.73;;
12267;SDS011;6196;48.398;11.736;2023-05-07T08:10:30;6.43;;;5.93;;
12267;SDS011;6196;48.398;11.736;2023-05-07T08:13:00;7.03;;;5.97;;
12267;SDS011;6196;48.398;11.736;2023-05-07T08:15:30;6.53;;;5.93;;
12267;SDS011;6196;48.398;11.736;2023-05-07T08:17:57;6.80;;;6.20;;
12267;SDS011;6196;48.398;11.736;2023-05-07T08:20:26;6.37;;;5.87;;
12267;SDS011;6196;48.398;11.736;2023-05-07T08:22:54;6.23;;;5.73;;
12267;SDS011;6196;48.398;11.736;2023-05-07T08:25:21;6.27;;;5.77;;
12267;SDS011;6196;48.398;11.736;2023-05-07T08:27:48;6.80;;;5.67;;
12267;SDS011;6196;48.398;11.736;2023-05-07T08:30:15;5.90;;;5.30;;
12267;SDS011;6196;48.398;11.736;2023-05-07T08:32:42;6.17;;;5.57;;
12267;SDS011;6196;48.398;11.736;2023-05-07T08:35:09;6.00;;;5.40;;
12267;SDS011;6196;48.398;11.736;2023-05-07T08:37:36;7.80;;;5.57;;
12267;SDS011;6196;48.398;11.736;2023-05-07T08:40:03;5.90;;;5.40;;
12267;SDS011;6196;48.398;11.736;2023-05-07T08:42:37;5.87;;;5.33;;
12267;SDS011;6196;48.398;11.736;2023-05-07T08:45:07;5.93;;;5.40;;
12267;SDS011;6196;48.398;11.736;2023-05-07T08:47:56;5.83;;;5.33;;
12267;SDS011;6196;48.398;11.736;2023-05-07T08:50:26;6.37;;;5.00;;
12267;SDS011;6196;48.398;11.736;2023-05-07T08:52:53;6.20;;;4.93;;
12267;SDS011;6196;48.398;11.736;2023-05-07T08:55:22;4.97;;;4.57;;
12267;SDS011;6196;48.398;11.736;2023-05-07T08:57:50;4.47;;;4.00;;
12267;SDS011;6196;48.398;11.736;2023-05-07T09:00:18;5.70;;;4.50;;
12267;SDS011;6196;48.398;11.736;2023-05-07T09:02:45;4.30;;;4.00;;
12267;SDS011;6196;48.398;11.736;2023-05-07T09:05:12;4.57;;;4.17;;
12267;SDS011;6196;48.398;11.736;2023-05-07T09:07:39;6.70;;;3.70;;
12267;SDS011;6196;48.398;11.736;2023-05-07T09:10:06;3.70;;;3.23;;
12267;SDS011;6196;48.398;11.736;2023-05-07T09:12:34;4.07;;;3.60;;
12267;SDS011;6196;48.398;11.736;2023-05-07T09:15:02;3.90;;;3.50;;
12267;SDS011;6196;48.398;11.736;2023-05-07T09:17:29;3.50;;;3.20;;
12267;SDS011;6196;48.398;11.736;2023-05-07T09:20:01;3.47;;;3.13;;
12267;SDS011;6196;48.398;11.736;2023-05-07T09:22:36;3.47;;;3.00;;
12267;SDS011;6196;48.398;11.736;2023-05-07T09:25:05;4.57;;;4.10;;
12267;SDS011;6196;48.398;11.736;2023-05-07T09:27:33;3.97;;;3.30;;
12267;SDS011;6196;48.398;11.736;2023-05-07T09:30:04;5.03;;;3.63;;
12267;SDS011;6196;48.398;11.736;2023-05-07T09:32:35;3.97;;;2.57;;
12267;SDS011;6196;48.398;11.736;2023-05-07T09:35:04;3.43;;;2.50;;
12267;SDS011;6196;48.398;11.736;2023-05-07T09:37:32;2.50;;;2.30;;
12267;SDS011;6196;48.398;11.736;2023-05-07T09:39:59;2.40;;;2.20;;
12267;SDS011;6196;48.398;11.736;2023-05-07T09:42:26;5.40;;;2.77;;
12267;SDS011;6196;48.398;11.736;2023-05-07T09:44:53;3.90;;;2.50;;
12267;SDS011;6196;48.398;11.736;2023-05-07T09:47:20;5.50;;;2.27;;
12267;SDS011;6196;48.398;11.736;2023-05-07T09:49:50;1.73;;;1.60;;
12267;SDS011;6196;48.398;11.736;2023-05-07T09:52:23;3.30;;;3.00;;
12267;SDS011;6196;48.398;11.736;2023-05-07T09:54:51;3.00;;;2.70;;
12267;SDS011;6196;48.398;11.736;2023-05-07T09:57:19;4.47;;;3.47;;
12267;SDS011;6196;48.398;11.736;2023-05-07T09:59:46;3.47;;;3.17;;
12267;SDS011;6196;48.398;11.736;2023-05-07T10:02:15;3.27;;;2.67;;
12267;SDS011;6196;48.398;11.736;2023-05-07T10:04:46;3.73;;;3.43;;
12267;SDS011;6196;48.398;11.736;2023-05-07T10:07:14;4.23;;;3.33;;
12267;SDS011;6196;48.398;11.736;2023-05-07T10:09:42;3.20;;;2.80;;
12267;SDS011;6196;48.398;11.736;2023-05-07T10:12:10;3.40;;;2.67;;
12267;SDS011;6196;48.398;11.736;2023-05-07T10:14:37;3.33;;;2.97;;
12267;SDS011;6196;48.398;11.736;2023-05-07T10:17:04;3.63;;;2.40;;
12267;SDS011;6196;48.398;11.736;2023-05-07T10:19:32;2.30;;;1.60;;
12267;SDS011;6196;48.398;11.736;2023-05-07T10:22:01;3.37;;;2.77;;
12267;SDS011;6196;48.398;11.736;2023-05-07T10:24:32;2.60;;;2.40;;
12267;SDS011;6196;48.398;11.736;2023-05-07T10:27:01;3.30;;;3.00;;
12267;SDS011;6196;48.398;11.736;2023-05-07T10:32:48;4.87;;;3.10;;
12267;SDS011;6196;48.398;11.736;2023-05-07T10:35:20;4.47;;;2.93;;
12267;SDS011;6196;48.398;11.736;2023-05-07T10:37:53;4.00;;;3.10;;
12267;SDS011;6196;48.398;11.736;2023-05-07T10:40:20;2.30;;;2.10;;
12267;SDS011;6196;48.398;11.736;2023-05-07T10:42:57;3.83;;;3.43;;
12267;SDS011;6196;48.398;11.736;2023-05-07T10:45:35;3.43;;;3.13;;
12267;SDS011;6196;48.398;11.736;2023-05-07T10:53:46;3.80;;;2.67;;
12267;SDS011;6196;48.398;11.736;2023-05-07T10:58:43;3.00;;;2.37;;
12267;SDS011;6196;48.398;11.736;2023-05-07T11:01:10;2.63;;;2.43;;
12267;SDS011;6196;48.398;11.736;2023-05-07T11:06:41;2.77;;;2.10;;
12267;SDS011;6196;48.398;11.736;2023-05-07T11:13:01;2.67;;;1.90;;
12267;SDS011;6196;48.398;11.736;2023-05-07T11:17:53;2.63;;;2.43;;
12267;SDS011;6196;48.398;11.736;2023-05-07T11:23:54;3.10;;;2.80;;
12267;SDS011;6196;48.398;11.736;2023-05-07T11:26:04;2.90;;;2.60;;
12267;SDS011;6196;48.398;11.736;2023-05-07T11:28:38;3.23;;;2.80;;
12267;SDS011;6196;48.398;11.736;2023-05-07T11:31:07;2.33;;;2.13;;
12267;SDS011;6196;48.398;11.736;2023-05-07T11:33:36;3.33;;;3.07;;
12267;SDS011;6196;48.398;11.736;2023-05-07T11:36:04;3.87;;;2.70;;
12267;SDS011;6196;48.398;11.736;2023-05-07T11:38:35;3.23;;;2.80;;
12267;SDS011;6196;48.398;11.736;2023-05-07T11:41:03;4.83;;;2.47;;
12267;SDS011;6196;48.398;11.736;2023-05-07T11:43:33;3.07;;;2.77;;
12267;SDS011;6196;48.398;11.736;2023-05-07T11:46:11;5.57;;;2.57;;
12267;SDS011;6196;48.398;11.736;2023-05-07T11:48:40;2.40;;;2.20;;
12267;SDS011;6196;48.398;11.736;2023-05-07T11:51:07;3.00;;;2.80;;
12267;SDS011;6196;48.398;11.736;2023-05-07T11:53:40;3.87;;;2.90;;
12267;SDS011;6196;48.398;11.736;2023-05-07T11:56:09;2.63;;;2.43;;
12267;SDS011;6196;48.398;11.736;2023-05-07T11:58:41;3.30;;;2.00;;
12267;SDS011;6196;48.398;11.736;2023-05-07T12:01:10;2.73;;;2.53;;
12267;SDS011;6196;48.398;11.736;2023-05-07T12:03:42;2.60;;;2.40;;
12267;SDS011;6196;48.398;11.736;2023-05-07T12:06:14;3.17;;;2.60;;
12267;SDS011;6196;48.398;11.736;2023-05-07T12:08:43;2.50;;;2.30;;
12267;SDS011;6196;48.398;11.736;2023-05-07T12:11:14;2.60;;;2.40;;
12267;SDS011;6196;48.398;11.736;2023-05-07T12:13:47;3.37;;;2.30;;
12267;SDS011;6196;48.398;11.736;2023-05-07T12:16:14;2.63;;;2.03;;
12267;SDS011;6196;48.398;11.736;2023-05-07T12:18:41;2.47;;;2.00;;
12267;SDS011;6196;48.398;11.736;2023-05-07T12:21:09;2.10;;;1.80;;
12267;SDS011;6196;48.398;11.736;2023-05-07T12:23:37;1.97;;;1.83;;
12267;SDS011;6196;48.398;11.736;2023-05-07T12:26:04;2.27;;;1.90;;
12267;SDS011;6196;48.398;11.736;2023-05-07T12:28:36;2.10;;;1.90;;
12267;SDS011;6196;48.398;11.736;2023-05-07T12:31:05;3.03;;;2.20;;
12267;SDS011;6196;48.398;11.736;2023-05-07T12:33:33;2.20;;;2.00;;
12267;SDS011;6196;48.398;11.736;2023-05-07T12:36:03;3.47;;;1.97;;
12267;SDS011;6196;48.398;11.736;2023-05-07T12:38:37;2.10;;;1.90;;
12267;SDS011;6196;48.398;11.736;2023-05-07T12:41:06;2.20;;;1.67;;
12267;SDS011;6196;48.398;11.736;2023-05-07T12:43:36;1.80;;;1.40;;
12267;SDS011;6196;48.398;11.736;2023-05-07T12:46:04;2.10;;;1.60;;
12267;SDS011;6196;48.398;11.736;2023-05-07T12:48:33;4.95;;;1.77;;
12267;SDS011;6196;48.398;11.736;2023-05-07T12:51:03;2.75;;;1.50;;
12267;SDS011;6196;48.398;11.736;2023-05-07T12:53:32;1.67;;;1.58;;
12267;SDS011;6196;48.398;11.736;2023-05-07T12:55:59;2.85;;;1.77;;
12267;SDS011;6196;48.398;11.736;2023-05-07T12:58:30;1.73;;;1.60;;
12267;SDS011;6196;48.398;11.736;2023-05-07T13:01:01;1.55;;;1.45;;
12267;SDS011;6196;48.398;11.736;2023-05-07T13:03:36;1.83;;;1.52;;
12267;SDS011;6196;48.398;11.736;2023-05-07T13:06:05;2.63;;;1.73;;
12267;SDS011;6196;48.398;11.736;2023-05-07T13:08:37;1.60;;;1.50;;
12267;SDS011;6196;48.398;11.736;2023-05-07T13:11:07;2.90;;;1.67;;
12267;SDS011;6196;48.398;11.736;2023-05-07T13:13:37;3.05;;;1.70;;
12267;SDS011;6196;48.398;11.736;2023-05-07T13:16:06;2.03;;;1.83;;
12267;SDS011;6196;48.398;11.736;2023-05-07T13:18:35;2.17;;;1.60;;
12267;SDS011;6196;48.398;11.736;2023-05-07T13:21:03;2.35;;;1.60;;
12267;SDS011;6196;48.398;11.736;2023-05-07T13:23:30;1.90;;;1.60;;
12267;SDS011;6196;48.398;11.736;2023-05-07T13:25:57;1.85;;;1.63;;
12267;SDS011;6196;48.398;11.736;2023-05-07T13:28:26;1.58;;;1.48;;
12267;SDS011;6196;48.398;11.736;2023-05-07T13:30:53;1.70;;;1.60;;
12267;SDS011;6196;48.398;11.736;2023-05-07T13:33:21;1.67;;;1.48;;
12267;SDS011;6196;48.398;11.736;2023-05-07T13:35:47;1.80;;;1.65;;
12267;SDS011;6196;48.398;11.736;2023-05-07T13:38:14;1.60;;;1.50;;
12267;SDS011;6196;48.398;11.736;2023-05-07T13:40:42;1.77;;;1.67;;
12267;SDS011;6196;48.398;11.736;2023-05-07T13:43:09;1.58;;;1.48;;
12267;SDS011;6196;48.398;11.736;2023-05-07T13:45:36;2.00;;;1.60;;
12267;SDS011;6196;48.398;11.736;2023-05-07T13:48:04;2.33;;;1.90;;
12267;SDS011;6196;48.398;11.736;2023-05-07T13:50:31;2.83;;;1.67;;
12267;SDS011;6196;48.398;11.736;2023-05-07T13:52:58;3.42;;;1.70;;
12267;SDS011;6196;48.398;11.736;2023-05-07T13:55:25;2.33;;;1.63;;
12267;SDS011;6196;48.398;11.736;2023-05-07T13:57:58;2.53;;;1.70;;
12267;SDS011;6196;48.398;11.736;2023-05-07T14:00:27;2.25;;;1.77;;
12267;SDS011;6196;48.398;11.736;2023-05-07T14:02:56;3.23;;;1.87;;
12267;SDS011;6196;48.398;11.736;2023-05-07T14:05:24;2.03;;;1.60;;
12267;SDS011;6196;48.398;11.736;2023-05-07T14:07:51;2.53;;;1.70;;
12267;SDS011;6196;48.398;11.736;2023-05-07T14:10:18;2.07;;;1.70;;
12267;SDS011;6196;48.398;11.736;2023-05-07T14:12:46;4.33;;;2.03;;
12267;SDS011;6196;48.398;11.736;2023-05-07T14:15:13;2.17;;;1.57;;
12267;SDS011;6196;48.398;11.736;2023-05-07T14:17:41;2.60;;;1.57;;
12267;SDS011;6196;48.398;11.736;2023-05-07T14:20:09;2.20;;;1.63;;
12267;SDS011;6196;48.398;11.736;2023-05-07T14:22:37;1.57;;;1.47;;
12267;SDS011;6196;48.398;11.736;2023-05-07T14:25:04;1.70;;;1.60;;
12267;SDS011;6196;48.398;11.736;2023-05-07T14:27:32;1.97;;;1.50;;
12267;SDS011;6196;48.398;11.736;2023-05-07T14:29:59;2.67;;;1.90;;
12267;SDS011;6196;48.398;11.736;2023-05-07T14:32:26;2.10;;;1.70;;
12267;SDS011;6196;48.398;11.736;2023-05-07T14:34:53;1.93;;;1.83;;
12267;SDS011;6196;48.398;11.736;2023-05-07T14:37:20;1.77;;;1.67;;
12267;SDS011;6196;48.398;11.736;2023-05-07T14:39:47;1.87;;;1.70;;
12267;SDS011;6196;48.398;11.736;2023-05-07T14:42:16;4.80;;;2.00;;
12267;SDS011;6196;48.398;11.736;2023-05-07T14:44:43;1.70;;;1.60;;
12267;SDS011;6196;48.398;11.736;2023-05-07T14:47:12;1.47;;;1.37;;
12267;SDS011;6196;48.398;11.736;2023-05-07T14:49:39;1.37;;;1.27;;
12267;SDS011;6196;48.398;11.736;2023-05-07T14:52:07;2.43;;;1.30;;
12267;SDS011;6196;48.398;11.736;2023-05-07T14:54:36;1.50;;;1.40;;
12267;SDS011;6196;48.398;11.736;2023-05-07T14:57:04;1.50;;;1.40;;
12267;SDS011;6196;48.398;11.736;2023-05-07T14:59:33;2.73;;;1.60;;
12267;SDS011;6196;48.398;11.736;2023-05-07T15:02:00;2.77;;;2.00;;
12267;SDS011;6196;48.398;11.736;2023-05-07T15:04:31;1.73;;;1.60;;
12267;SDS011;6196;48.398;11.736;2023-05-07T15:06:58;1.77;;;1.67;;
12267;SDS011;6196;48.398;11.736;2023-05-07T15:09:25;1.77;;;1.60;;
12267;SDS011;6196;48.398;11.736;2023-05-07T15:11:52;1.87;;;1.67;;
12267;SDS011;6196;48.398;11.736;2023-05-07T15:14:19;2.83;;;1.70;;
12267;SDS011;6196;48.398;11.736;2023-05-07T15:16:48;2.17;;;1.70;;
12267;SDS011;6196;48.398;11.736;2023-05-07T15:19:16;1.60;;;1.50;;